Time;durP1;ratioP1;P1;durP2;ratioP2;P2;SDS_P1;SDS_P2;PMS_P1;PMS_P2;Temp;Humidity;BMP_temperature;BMP_pressure;BME280_temperature;BME280_humidity;BME280_pressure;Samples;Min_cycle;Max_cycle;Signal;HPM_P1;HPM_P2
2022/03/25 00:01:04;;;;;;;21.17;11.40;;;;;;;3.75;59.83;102161.78;4971694;28;20208;-68
2022/03/25 00:03:31;;;;;;;23.47;13.37;;;;;;;3.72;60.56;102156.53;4971696;28;20456;-67
2022/03/25 00:05:59;;;;;;;20.97;11.80;;;;;;;3.70;60.69;102153.91;4971378;28;20212;-67
2022/03/25 00:08:26;;;;;;;20.90;12.10;;;;;;;3.67;60.23;102153.94;4962591;28;20602;-67
2022/03/25 00:10:53;;;;;;;21.60;11.97;;;;;;;3.64;60.42;102153.09;4969991;28;20785;-67
2022/03/25 00:13:19;;;;;;;23.43;11.87;;;;;;;3.58;60.29;102153.19;4972037;28;20204;-68
2022/03/25 00:15:47;;;;;;;22.83;11.70;;;;;;;3.55;61.27;102147.94;4983874;28;20200;-67
2022/03/25 00:18:14;;;;;;;21.67;11.83;;;;;;;3.51;60.28;102162.03;4970941;28;20219;-67
2022/03/25 00:20:40;;;;;;;19.80;11.40;;;;;;;3.46;61.21;102157.69;4967504;28;20223;-67
2022/03/25 00:23:07;;;;;;;23.17;11.90;;;;;;;3.41;60.81;102154.22;4971061;28;20686;-67
2022/03/25 00:25:34;;;;;;;18.97;11.17;;;;;;;3.36;60.84;102156.03;4971097;28;20226;-67
2022/03/25 00:28:01;;;;;;;21.17;11.77;;;;;;;3.33;60.90;102152.56;4971284;28;20318;-67
2022/03/25 00:30:28;;;;;;;20.20;11.43;;;;;;;3.30;60.68;102150.81;4971452;28;20283;-67
2022/03/25 00:32:56;;;;;;;23.20;12.37;;;;;;;3.25;61.66;102157.88;4971436;28;20681;-67
2022/03/25 00:35:22;;;;;;;24.90;12.67;;;;;;;3.21;61.32;102152.69;4971363;28;20216;-67
2022/03/25 00:37:49;;;;;;;24.20;12.80;;;;;;;3.18;61.24;102160.59;4970579;28;20228;-67
2022/03/25 00:40:16;;;;;;;25.97;14.27;;;;;;;3.16;62.44;102150.06;4971347;28;20386;-67
2022/03/25 00:42:43;;;;;;;21.93;13.47;;;;;;;3.17;62.61;102150.94;4971528;28;20584;-67
2022/03/25 00:45:10;;;;;;;26.30;13.27;;;;;;;3.16;62.76;102150.06;4970805;28;20207;-68
2022/03/25 00:47:37;;;;;;;23.53;12.83;;;;;;;3.15;62.48;102150.97;4971060;28;20228;-67
2022/03/25 00:50:06;;;;;;;25.10;13.53;;;;;;;3.14;62.73;102142.19;4970989;28;20224;-67
2022/03/25 00:52:32;;;;;;;25.87;13.13;;;;;;;3.13;62.96;102143.06;4971144;28;20621;-68
2022/03/25 00:54:59;;;;;;;23.93;13.67;;;;;;;3.13;62.91;102148.34;4970746;28;20212;-67
2022/03/25 00:57:25;;;;;;;19.77;12.57;;;;;;;3.10;62.98;102132.56;4970664;28;20259;-67
2022/03/25 00:59:53;;;;;;;23.70;12.03;;;;;;;3.10;63.52;102139.59;4970675;28;20208;-67
2022/03/25 01:02:19;;;;;;;20.30;11.50;;;;;;;3.07;63.39;102136.97;4971399;28;20212;-68
2022/03/25 01:04:46;;;;;;;21.13;11.37;;;;;;;3.03;63.62;102138.78;4970688;28;20584;-67
2022/03/25 01:07:14;;;;;;;18.13;10.43;;;;;;;3.01;63.28;102137.06;4970207;28;20310;-68
2022/03/25 01:09:40;;;;;;;16.80;10.27;;;;;;;2.95;62.63;102139.72;4970385;28;20798;-67
2022/03/25 01:12:08;;;;;;;21.03;11.00;;;;;;;2.90;62.69;102139.75;4970897;28;20228;-68
2022/03/25 01:14:35;;;;;;;19.97;11.17;;;;;;;2.85;62.91;102138.94;4970650;28;20212;-67
2022/03/25 01:17:02;;;;;;;19.10;10.33;;;;;;;2.81;63.06;102138.97;4970432;28;20335;-67
2022/03/25 01:19:28;;;;;;;21.07;11.47;;;;;;;2.77;63.30;102143.38;4970684;28;20212;-68
2022/03/25 01:21:55;;;;;;;17.43;11.30;;;;;;;2.75;63.57;102138.13;4970621;28;20208;-66
2022/03/25 01:24:24;;;;;;;23.30;11.13;;;;;;;2.72;63.09;102140.78;4974080;28;20205;-67
2022/03/25 01:26:50;;;;;;;23.97;12.40;;;;;;;2.70;63.67;102133.75;4979103;28;20224;-67
2022/03/25 01:29:17;;;;;;;18.70;11.00;;;;;;;2.69;63.75;102132.88;4979021;28;20210;-67
2022/03/25 01:31:43;;;;;;;18.00;10.70;;;;;;;2.66;63.88;102130.31;4978743;28;20311;-67
2022/03/25 01:34:10;;;;;;;22.53;11.90;;;;;;;2.62;63.57;102131.22;4979361;28;20302;-67
2022/03/25 01:36:37;;;;;;;21.70;10.20;;;;;;;2.57;63.95;102126.84;4978430;28;20320;-67
2022/03/25 01:39:04;;;;;;;18.13;10.30;;;;;;;2.49;63.72;102134.81;4978845;28;20278;-67
2022/03/25 01:41:32;;;;;;;17.60;11.20;;;;;;;2.41;63.63;102133.97;4979357;28;20224;-66
2022/03/25 01:44:01;;;;;;;20.00;10.60;;;;;;;2.33;63.64;102136.63;4979734;28;20204;-68
2022/03/25 01:46:28;;;;;;;18.00;10.93;;;;;;;2.25;63.63;102135.81;4979969;28;20296;-67
2022/03/25 01:48:56;;;;;;;19.90;11.10;;;;;;;2.20;63.72;102139.34;4977915;28;20204;-67
2022/03/25 01:51:29;;;;;;;23.03;11.17;;;;;;;2.14;64.39;102131.50;4970254;28;20239;-67
2022/03/25 01:54:01;;;;;;;20.13;10.97;;;;;;;2.10;64.33;102135.91;4970197;28;20208;-67
2022/03/25 01:56:28;;;;;;;18.23;10.20;;;;;;;2.06;64.80;102135.03;4970121;28;20309;-67
2022/03/25 01:58:56;;;;;;;24.03;10.93;;;;;;;2.02;64.92;102128.03;4970012;28;20507;-67
2022/03/25 02:01:25;;;;;;;23.33;11.63;;;;;;;1.99;65.11;102133.31;4973016;28;20214;-67
2022/03/25 02:03:51;;;;;;;22.93;11.73;;;;;;;1.98;65.07;102136.81;4981607;28;20293;-67
2022/03/25 02:06:18;;;;;;;19.87;11.37;;;;;;;1.97;65.58;102140.31;4989324;28;20302;-67
2022/03/25 02:08:44;;;;;;;22.43;11.67;;;;;;;1.96;65.83;102140.34;4989495;28;20239;-67
2022/03/25 02:11:11;;;;;;;18.20;11.10;;;;;;;1.94;65.50;102137.72;4973150;28;20666;-67
2022/03/25 02:13:38;;;;;;;25.80;12.13;;;;;;;1.93;66.13;102140.38;4975689;28;20219;-67
2022/03/25 02:16:06;;;;;;;21.80;10.70;;;;;;;1.90;66.09;102146.50;4988383;28;20211;-67
2022/03/25 02:18:32;;;;;;;20.93;11.90;;;;;;;1.88;66.62;102140.38;4989318;28;20497;-67
2022/03/25 02:20:59;;;;;;;25.57;12.27;;;;;;;1.87;66.71;102154.38;4970274;28;20204;-67
2022/03/25 02:23:27;;;;;;;23.57;12.17;;;;;;;1.85;66.33;102148.25;4969603;28;20204;-67
2022/03/25 02:25:55;;;;;;;19.30;10.97;;;;;;;1.84;66.74;102141.25;4969781;28;20204;-66
2022/03/25 02:28:22;;;;;;;16.90;10.43;;;;;;;1.84;67.11;102154.38;4969293;28;20232;-67
2022/03/25 02:30:49;;;;;;;18.83;10.43;;;;;;;1.82;67.30;102153.53;4969304;28;20235;-67
2022/03/25 02:33:15;;;;;;;20.03;10.23;;;;;;;1.80;67.13;102157.91;4967475;28;20924;-67
2022/03/25 02:35:44;;;;;;;16.67;9.87;;;;;;;1.77;66.72;102157.94;4967162;28;20215;-66
2022/03/25 02:38:13;;;;;;;18.47;10.17;;;;;;;1.72;66.72;102159.69;4972742;28;20219;-67
2022/03/25 02:40:41;;;;;;;17.63;9.73;;;;;;;1.65;66.48;102153.56;4973729;28;20693;-66
2022/03/25 02:43:09;;;;;;;23.03;11.10;;;;;;;1.60;66.97;102152.72;4973083;28;20207;-67
2022/03/25 02:45:35;;;;;;;19.07;10.00;;;;;;;1.55;67.25;102156.25;4973321;28;20200;-67
2022/03/25 02:48:02;;;;;;;17.63;9.70;;;;;;;1.52;67.38;102154.50;4973234;28;20228;-67
2022/03/25 02:50:30;;;;;;;19.27;10.03;;;;;;;1.51;67.46;102149.25;4973559;28;20216;-67
2022/03/25 02:52:57;;;;;;;19.97;10.80;;;;;;;1.48;67.86;102160.63;4972755;28;20201;-67
2022/03/25 02:55:24;;;;;;;18.13;9.70;;;;;;;1.46;68.23;102151.00;4975857;28;20241;-67
2022/03/25 02:57:52;;;;;;;19.20;9.27;;;;;;;1.43;67.93;102146.66;4985999;28;20220;-67
2022/03/25 03:00:19;;;;;;;22.43;10.60;;;;;;;1.41;68.03;102145.78;4973648;28;20208;-67
2022/03/25 03:02:47;;;;;;;18.17;9.37;;;;;;;1.38;68.73;102151.91;4973488;28;20223;-67
2022/03/25 03:05:14;;;;;;;18.20;10.47;;;;;;;1.40;68.71;102151.91;4973037;28;20209;-66
2022/03/25 03:07:41;;;;;;;16.07;9.53;;;;;;;1.41;68.89;102155.41;4988618;23;20242;-78
2022/03/25 03:10:09;;;;;;;21.70;11.27;;;;;;;1.43;69.00;102151.03;4996697;28;20302;-78
2022/03/25 03:12:38;;;;;;;19.20;10.97;;;;;;;1.46;69.72;102154.50;4995114;28;20813;-78
2022/03/25 03:15:07;;;;;;;20.40;10.33;;;;;;;1.48;69.27;102147.50;4996268;28;20299;-78
2022/03/25 03:17:34;;;;;;;19.03;9.87;;;;;;;1.48;69.76;102150.13;4995218;28;20208;-79
2022/03/25 03:20:02;;;;;;;18.47;10.13;;;;;;;1.50;69.71;102143.13;4995942;28;20234;-79
2022/03/25 03:22:28;;;;;;;17.00;9.60;;;;;;;1.50;69.71;102156.25;4996843;28;20267;-79
2022/03/25 03:24:55;;;;;;;16.17;9.57;;;;;;;1.51;69.73;102152.75;4996363;28;20227;-79
2022/03/25 03:27:22;;;;;;;18.37;9.90;;;;;;;1.50;69.68;102158.88;4996950;28;20214;-79
2022/03/25 03:29:49;;;;;;;22.57;11.57;;;;;;;1.52;69.41;102164.13;4996296;28;20204;-79
2022/03/25 03:32:18;;;;;;;19.73;9.43;;;;;;;1.49;69.36;102156.25;4995460;28;20235;-79
2022/03/25 03:34:45;;;;;;;21.60;11.67;;;;;;;1.48;69.67;102162.38;4995753;28;20663;-80
2022/03/25 03:37:11;;;;;;;22.40;11.57;;;;;;;1.47;69.87;102161.50;5015532;28;20203;-79
2022/03/25 03:39:38;;;;;;;22.93;11.87;;;;;;;1.45;69.95;102158.00;5015523;28;20207;-79
2022/03/25 03:42:05;;;;;;;21.60;11.47;;;;;;;1.45;70.14;102170.25;5008440;28;20203;-79
2022/03/25 03:44:31;;;;;;;22.73;12.47;;;;;;;1.44;69.99;102158.88;5002875;28;20224;-78
2022/03/25 03:46:58;;;;;;;18.53;10.33;;;;;;;1.43;69.82;102156.28;5003355;28;20203;-79
2022/03/25 03:49:26;;;;;;;20.40;11.63;;;;;;;1.42;70.24;102152.78;4996111;28;20662;-79
2022/03/25 03:51:52;;;;;;;23.27;11.17;;;;;;;1.38;70.11;102159.78;4995808;28;20230;-79
2022/03/25 03:54:19;;;;;;;20.43;10.30;;;;;;;1.35;69.99;102151.91;4981080;28;20208;-79
2022/03/25 03:56:45;;;;;;;21.47;11.77;;;;;;;1.30;69.89;102156.28;4976101;28;20473;-78
2022/03/25 03:59:12;;;;;;;22.33;11.53;;;;;;;1.24;69.55;102156.31;4976185;28;20212;-78
2022/03/25 04:01:38;;;;;;;19.03;10.87;;;;;;;1.17;69.62;102167.66;4974333;28;20228;-78
2022/03/25 04:04:05;;;;;;;20.07;10.43;;;;;;;1.11;69.68;102167.66;4994625;28;20211;-78
2022/03/25 04:06:33;;;;;;;19.03;11.50;;;;;;;1.07;70.01;102165.94;4994905;28;20306;-78
2022/03/25 04:09:00;;;;;;;21.63;11.90;;;;;;;1.07;70.23;102167.69;4995313;28;20226;-79
2022/03/25 04:11:26;;;;;;;21.83;11.37;;;;;;;1.04;70.65;102164.19;4995414;28;20295;-79
2022/03/25 04:13:53;;;;;;;23.00;12.27;;;;;;;1.02;70.66;102165.94;4994815;28;20246;-78
2022/03/25 04:16:21;;;;;;;17.93;10.97;;;;;;;1.03;70.57;102164.19;4994721;28;20781;-79
2022/03/25 04:18:48;;;;;;;21.40;11.27;;;;;;;1.02;70.75;102167.69;4994582;28;20206;-79
2022/03/25 04:21:14;;;;;;;20.67;10.77;;;;;;;1.00;70.73;102161.53;4994466;28;20207;-78
2022/03/25 04:23:42;;;;;;;20.47;11.10;;;;;;;1.00;70.92;102164.16;4994691;28;20571;-79
2022/03/25 04:26:08;;;;;;;20.80;10.67;;;;;;;1.00;70.96;102165.03;4994451;28;20235;-79
2022/03/25 04:28:36;;;;;;;19.53;11.07;;;;;;;0.97;70.79;102166.78;4994790;28;20210;-79
2022/03/25 04:31:02;;;;;;;18.13;11.43;;;;;;;0.96;70.89;102165.03;4995932;28;20226;-77
2022/03/25 04:33:31;;;;;;;22.13;11.07;;;;;;;0.93;71.15;102165.91;4996284;28;20291;-79
2022/03/25 04:35:58;;;;;;;22.27;10.63;;;;;;;0.91;71.12;102172.91;4995577;28;20231;-79
2022/03/25 04:38:24;;;;;;;23.50;10.63;;;;;;;0.88;71.05;102175.53;4996091;28;20557;-80
2022/03/25 04:40:52;;;;;;;21.90;11.43;;;;;;;0.83;71.00;102168.53;4994950;28;20210;-79
2022/03/25 04:43:19;;;;;;;17.53;9.23;;;;;;;0.78;71.03;102167.66;4995066;28;20200;-79
2022/03/25 04:45:46;;;;;;;22.07;9.93;;;;;;;0.73;71.13;102167.63;4994981;28;20706;-78
2022/03/25 04:48:14;;;;;;;21.80;9.80;;;;;;;0.67;71.14;102176.38;4994211;28;20199;-80
2022/03/25 04:50:41;;;;;;;20.53;9.83;;;;;;;0.64;71.49;102173.75;4994478;28;20230;-79
2022/03/25 04:53:08;;;;;;;21.13;10.40;;;;;;;0.63;71.67;102173.75;4994178;28;20246;-78
2022/03/25 04:55:35;;;;;;;23.33;10.97;;;;;;;0.62;71.78;102172.88;5003693;28;20227;-78
2022/03/25 04:58:03;;;;;;;17.27;9.27;;;;;;;0.62;72.01;102185.09;4999221;28;20207;-79
2022/03/25 05:00:29;;;;;;;26.17;11.27;;;;;;;0.60;72.16;102182.47;4993851;28;20271;-78
2022/03/25 05:02:56;;;;;;;16.27;9.30;;;;;;;0.61;72.25;102180.72;4999841;28;20210;-79
2022/03/25 05:05:22;;;;;;;19.80;9.87;;;;;;;0.59;72.47;102175.47;4996344;28;20235;-78
2022/03/25 05:07:50;;;;;;;22.07;10.70;;;;;;;0.59;72.33;102180.72;4992276;28;20219;-79
2022/03/25 05:10:17;;;;;;;21.73;10.43;;;;;;;0.58;72.37;102176.34;4990976;28;20251;-79
2022/03/25 05:12:44;;;;;;;22.00;11.00;;;;;;;0.57;72.44;102179.84;4994266;28;20242;-79
2022/03/25 05:15:13;;;;;;;21.10;10.13;;;;;;;0.57;72.58;102181.59;4994233;28;20222;-79
2022/03/25 05:17:51;;;;;;;20.13;10.27;;;;;;;0.56;72.63;102179.84;4994043;28;20212;-78
2022/03/25 05:20:19;;;;;;;16.80;10.03;;;;;;;0.54;72.17;102184.19;4992372;28;20493;-79
2022/03/25 05:22:46;;;;;;;21.07;9.70;;;;;;;0.50;72.57;102190.34;4995371;28;20298;-78
2022/03/25 05:25:13;;;;;;;20.47;10.30;;;;;;;0.46;72.18;102194.69;4995413;28;20223;-79
2022/03/25 05:27:48;;;;;;;18.20;10.07;;;;;;;0.43;72.43;102199.91;4995638;28;20218;-79
2022/03/25 05:30:19;;;;;;;20.50;9.43;;;;;;;0.38;72.00;102191.16;4996213;28;20253;-79
2022/03/25 05:32:45;;;;;;;18.57;9.47;;;;;;;0.34;72.33;102192.03;4995612;28;20222;-78
2022/03/25 05:35:12;;;;;;;16.60;8.77;;;;;;;0.31;72.00;102195.53;5009317;28;20232;-79
2022/03/25 05:37:39;;;;;;;24.10;9.63;;;;;;;0.30;72.17;102190.28;4992167;28;20215;-79
2022/03/25 05:40:09;;;;;;;18.87;9.90;;;;;;;0.33;72.48;102198.16;4995957;28;20208;-79
2022/03/25 05:42:38;;;;;;;16.47;9.10;;;;;;;0.33;72.32;102195.53;4994480;28;20219;-79
2022/03/25 05:45:07;;;;;;;17.37;9.67;;;;;;;0.36;72.30;102199.91;4995076;28;20926;-78
2022/03/25 05:47:37;;;;;;;20.13;9.97;;;;;;;0.38;72.58;102190.28;4993832;28;20577;-80
2022/03/25 05:50:05;;;;;;;20.73;9.27;;;;;;;0.40;72.66;102194.66;4990001;28;20250;-78
2022/03/25 05:52:32;;;;;;;15.63;9.10;;;;;;;0.42;72.58;102197.28;4990946;28;20311;-79
2022/03/25 05:54:59;;;;;;;19.83;9.03;;;;;;;0.44;72.56;102193.81;4993215;28;20230;-78
2022/03/25 05:57:25;;;;;;;19.50;9.67;;;;;;;0.49;72.57;102201.69;4993579;28;20306;-78
2022/03/25 05:59:52;;;;;;;15.67;8.77;;;;;;;0.52;72.73;102205.19;4994118;28;20581;-78
2022/03/25 06:02:19;;;;;;;16.37;8.70;;;;;;;0.53;72.43;102201.72;4996659;28;20207;-78
2022/03/25 06:04:47;;;;;;;16.63;9.00;;;;;;;0.55;72.98;102205.19;4996500;28;20231;-79
2022/03/25 06:07:13;;;;;;;17.70;9.13;;;;;;;0.58;72.91;102213.06;4994142;28;20747;-77
2022/03/25 06:09:40;;;;;;;21.40;9.77;;;;;;;0.63;72.97;102220.94;4998358;28;20196;-79
2022/03/25 06:12:08;;;;;;;19.57;9.40;;;;;;;0.67;73.17;102222.72;4993793;28;20223;-79
2022/03/25 06:14:34;;;;;;;20.93;10.43;;;;;;;0.72;73.42;102212.25;4994614;28;20231;-79
2022/03/25 06:17:01;;;;;;;25.10;10.50;;;;;;;0.79;73.62;102221.84;4993654;28;20733;-79
2022/03/25 06:19:28;;;;;;;22.97;10.87;;;;;;;0.84;73.83;102222.75;4994003;28;20566;-79
2022/03/25 06:21:56;;;;;;;20.30;9.87;;;;;;;0.90;73.89;102220.09;4993404;28;20207;-79
2022/03/25 06:24:23;;;;;;;18.80;9.83;;;;;;;0.95;73.86;102221.88;4992801;28;20571;-80
2022/03/25 06:26:49;;;;;;;19.83;10.30;;;;;;;1.02;74.17;102225.38;4993719;28;20714;-79
2022/03/25 06:29:17;;;;;;;19.87;9.63;;;;;;;1.10;74.40;102228.88;4993171;28;20225;-79
2022/03/25 06:31:43;;;;;;;18.00;10.13;;;;;;;1.15;74.39;102237.63;4993462;28;20222;-78
2022/03/25 06:34:10;;;;;;;24.00;10.77;;;;;;;1.21;74.03;102236.78;5004618;28;20203;-79
2022/03/25 06:36:36;;;;;;;23.30;11.57;;;;;;;1.27;74.02;102239.38;4999431;28;20286;-78
2022/03/25 06:39:04;;;;;;;21.73;11.67;;;;;;;1.33;74.75;102235.00;4993705;28;20211;-78
2022/03/25 06:41:31;;;;;;;20.57;12.07;;;;;;;1.41;74.55;102242.91;4994093;28;20208;-79
2022/03/25 06:43:57;;;;;;;33.30;11.83;;;;;;;1.48;74.56;102246.38;4993265;28;20230;-78
2022/03/25 06:46:24;;;;;;;24.73;11.83;;;;;;;1.53;74.36;102245.50;5008101;28;20237;-79
2022/03/25 06:48:52;;;;;;;28.63;12.20;;;;;;;1.61;74.11;102245.53;5012701;28;20214;-78
2022/03/25 06:51:19;;;;;;;22.20;11.60;;;;;;;1.70;74.50;102245.50;5001888;28;20207;-78
2022/03/25 06:53:46;;;;;;;22.03;10.73;;;;;;;1.77;74.63;102244.63;5003070;28;20284;-79
2022/03/25 06:56:15;;;;;;;27.23;12.07;;;;;;;1.86;74.77;102241.97;4998137;28;20592;-79
2022/03/25 06:58:42;;;;;;;22.80;11.70;;;;;;;1.92;74.81;102241.06;5012601;28;20213;-80
2022/03/25 07:01:09;;;;;;;25.60;12.13;;;;;;;2.02;74.86;102248.91;5013586;28;20214;-80
2022/03/25 07:03:36;;;;;;;25.00;11.33;;;;;;;2.13;74.89;102251.53;5006388;28;20202;-79
2022/03/25 07:06:04;;;;;;;21.77;11.77;;;;;;;2.22;74.84;102253.25;4993044;28;20718;-79
2022/03/25 07:08:31;;;;;;;20.87;11.37;;;;;;;2.34;75.02;102250.56;4999413;28;20222;-79
2022/03/25 07:10:59;;;;;;;24.70;11.80;;;;;;;2.46;74.51;102253.16;5012995;28;20214;-79
2022/03/25 07:13:27;;;;;;;25.43;12.43;;;;;;;2.58;75.08;102252.22;5008227;28;20569;-80
2022/03/25 07:15:54;;;;;;;23.13;12.17;;;;;;;2.73;75.40;102258.28;4979464;28;20228;-79
2022/03/25 07:18:21;;;;;;;24.33;12.33;;;;;;;2.87;76.07;102255.56;4974313;28;20219;-79
2022/03/25 07:20:47;;;;;;;28.10;12.80;;;;;;;3.02;75.54;102255.47;4990450;28;20210;-78
2022/03/25 07:23:14;;;;;;;21.70;12.57;;;;;;;3.17;75.75;102257.13;4996932;28;20231;-78
2022/03/25 07:25:41;;;;;;;25.63;13.53;;;;;;;3.31;76.20;102260.53;4996936;28;20223;-79
2022/03/25 07:28:07;;;;;;;23.33;12.37;;;;;;;3.45;76.35;102261.28;4996687;28;20864;-79
2022/03/25 07:30:38;;;;;;;21.00;12.43;;;;;;;3.60;76.01;102259.41;4996884;28;20216;-79
2022/03/25 07:33:05;;;;;;;22.97;11.43;;;;;;;3.75;76.34;102268.06;4997008;28;20300;-79
2022/03/25 07:35:32;;;;;;;18.50;10.90;;;;;;;3.90;75.79;102267.03;4996749;28;20270;-79
2022/03/25 07:37:58;;;;;;;22.90;12.47;;;;;;;4.06;75.66;102267.75;4997326;28;20214;-80
2022/03/25 07:40:25;;;;;;;24.00;12.37;;;;;;;4.21;75.54;102267.56;4996761;28;20226;-79
2022/03/25 07:42:51;;;;;;;19.43;12.77;;;;;;;4.40;75.54;102271.75;4996598;28;20611;-80
2022/03/25 07:45:18;;;;;;;23.20;12.70;;;;;;;4.61;75.50;102275.00;4996513;28;20227;-80
2022/03/25 07:47:47;;;;;;;22.83;12.87;;;;;;;4.83;75.12;102281.75;4996066;28;20213;-81
2022/03/25 07:50:19;;;;;;;24.13;12.80;;;;;;;5.06;75.28;102276.13;4996143;28;20203;-80
2022/03/25 07:52:46;;;;;;;26.57;13.07;;;;;;;5.29;74.75;102291.63;4996499;28;20571;-80
2022/03/25 07:55:13;;;;;;;21.90;13.00;;;;;;;5.52;75.16;102285.09;4996625;28;20239;-79
2022/03/25 07:57:40;;;;;;;22.33;11.83;;;;;;;5.79;75.05;102296.97;4996311;28;20219;-79
2022/03/25 08:00:11;;;;;;;21.30;11.47;;;;;;;6.03;74.12;102292.19;4997039;28;20211;-79
2022/03/25 08:02:38;;;;;;;23.53;10.60;;;;;;;6.22;72.36;102293.59;4997037;28;20730;-80
2022/03/25 08:05:09;;;;;;;19.97;10.50;;;;;;;6.41;70.70;102300.25;4997177;28;20755;-79
2022/03/25 08:07:41;;;;;;;23.90;11.80;;;;;;;6.60;68.69;102298.13;4997124;28;20274;-79
2022/03/25 08:10:08;;;;;;;20.20;11.80;;;;;;;6.79;67.00;102288.88;4997322;28;20595;-79
2022/03/25 08:12:36;;;;;;;27.23;11.77;;;;;;;7.02;65.93;102306.03;5011335;28;20697;-78
2022/03/25 08:15:05;;;;;;;23.33;12.20;;;;;;;7.24;65.36;102296.69;5016216;28;20245;-79
2022/03/25 08:17:32;;;;;;;28.80;12.13;;;;;;;7.46;63.30;102311.19;5017104;28;20273;-79
2022/03/25 08:19:58;;;;;;;26.80;12.97;;;;;;;7.68;62.67;102308.00;5017133;28;20745;-79
2022/03/25 08:22:26;;;;;;;23.13;11.60;;;;;;;7.90;61.22;102306.53;5017009;28;20203;-79
2022/03/25 08:27:52;;;;;;;27.00;13.43;;;;;;;8.34;59.60;102311.56;5016718;28;20189;-79
2022/03/25 08:30:20;;;;;;;28.63;13.23;;;;;;;8.59;58.86;102313.56;5016302;28;20187;-79
2022/03/25 08:32:47;;;;;;;20.17;11.57;;;;;;;8.78;58.68;102314.72;5015760;28;20249;-80
2022/03/25 08:35:13;;;;;;;22.37;11.67;;;;;;;8.97;57.10;102315.94;5016584;28;20237;-79
2022/03/25 08:37:42;;;;;;;24.63;12.83;;;;;;;9.17;56.45;102320.63;5017066;28;20211;-79
2022/03/25 08:40:10;;;;;;;22.17;11.53;;;;;;;9.35;55.81;102320.06;5016920;28;20213;-79
2022/03/25 08:42:37;;;;;;;20.63;12.13;;;;;;;9.57;55.49;102320.25;5018011;28;20691;-79
2022/03/25 08:45:04;;;;;;;26.57;12.27;;;;;;;9.74;54.20;102322.34;5017468;28;20234;-78
2022/03/25 08:47:30;;;;;;;23.17;12.33;;;;;;;9.92;52.45;102327.06;5016770;28;20214;-80
2022/03/25 08:49:57;;;;;;;26.10;11.60;;;;;;;10.05;51.27;102324.84;5016542;28;20559;-79
2022/03/25 08:52:23;;;;;;;22.20;12.50;;;;;;;10.19;50.34;102333.28;5016275;28;20206;-79
2022/03/25 08:54:51;;;;;;;21.10;11.67;;;;;;;10.35;50.41;102326.47;5015717;28;20227;-80
2022/03/25 08:57:18;;;;;;;22.83;13.07;;;;;;;10.55;49.78;102327.56;5016444;28;20690;-79
2022/03/25 08:59:45;;;;;;;29.57;15.20;;;;;;;10.71;49.51;102320.72;5016641;28;20209;-79
2022/03/25 09:02:15;;;;;;;19.93;11.67;;;;;;;10.86;48.91;102317.47;5017262;28;20211;-79
2022/03/25 09:04:42;;;;;;;23.87;12.50;;;;;;;11.00;48.58;102328.47;5017175;28;20592;-79
2022/03/25 09:07:08;;;;;;;20.13;12.90;;;;;;;11.17;48.43;102326.94;5016503;28;20747;-79
2022/03/25 09:09:35;;;;;;;23.27;12.90;;;;;;;11.33;48.04;102328.94;5015250;28;20206;-79
2022/03/25 09:12:03;;;;;;;22.30;12.53;;;;;;;11.52;48.16;102331.75;5016498;28;20279;-79
2022/03/25 09:14:30;;;;;;;22.07;13.10;;;;;;;11.68;47.59;102332.00;5016026;28;20275;-80
2022/03/25 09:16:56;;;;;;;28.37;13.87;;;;;;;11.83;47.51;102326.03;5016332;28;20217;-79
2022/03/25 09:19:23;;;;;;;21.63;12.70;;;;;;;11.98;47.32;102329.91;5015448;28;20209;-79
2022/03/25 09:21:49;;;;;;;25.50;13.87;;;;;;;12.13;47.47;102327.44;5016145;28;20230;-79
2022/03/25 09:24:16;;;;;;;20.80;12.93;;;;;;;12.29;46.96;102326.75;5015031;28;20505;-79
2022/03/25 09:26:42;;;;;;;25.43;13.77;;;;;;;12.43;46.51;102330.56;5015591;28;20220;-79
2022/03/25 09:29:10;;;;;;;22.67;13.20;;;;;;;12.54;46.12;102321.22;5015346;28;20214;-80
2022/03/25 09:31:38;;;;;;;19.83;13.33;;;;;;;12.64;45.53;102322.50;5014986;28;20294;-80
2022/03/25 09:36:49;;;;;;;22.53;13.17;;;;;;;12.93;45.03;102330.06;5014251;28;20186;-79
2022/03/25 09:39:16;;;;;;;31.03;14.43;;;;;;;13.06;44.53;102328.56;5014434;28;20218;-79
2022/03/25 09:41:42;;;;;;;26.83;13.83;;;;;;;13.19;43.61;102329.75;5013778;28;20203;-79
2022/03/25 09:44:11;;;;;;;24.37;13.50;;;;;;;13.31;43.27;102327.41;5013322;28;20444;-79
2022/03/25 09:46:41;;;;;;;24.00;13.30;;;;;;;13.40;42.90;102324.31;5014847;28;20211;-79
2022/03/25 09:49:08;;;;;;;23.57;13.53;;;;;;;13.50;42.27;102330.94;5016104;28;20214;-78
2022/03/25 09:51:36;;;;;;;21.30;13.30;;;;;;;13.62;42.06;102333.00;5016177;28;20206;-79
2022/03/25 09:54:02;;;;;;;29.50;13.40;;;;;;;13.74;41.60;102331.53;5015550;28;20689;-80
2022/03/25 09:56:29;;;;;;;22.47;13.13;;;;;;;13.83;39.47;102333.75;5014447;28;20227;-80
2022/03/25 09:58:56;;;;;;;24.30;13.53;;;;;;;13.89;38.56;102328.09;5015412;28;20207;-79
2022/03/25 10:01:24;;;;;;;22.33;13.60;;;;;;;13.96;38.29;102332.19;5015934;28;20211;-79
2022/03/25 10:03:50;;;;;;;27.80;15.20;;;;;;;14.05;37.97;102330.84;5015316;28;20202;-79
2022/03/25 10:06:17;;;;;;;25.87;14.80;;;;;;;14.19;38.25;102339.91;5014563;28;20250;-79
2022/03/25 10:08:45;;;;;;;26.77;14.80;;;;;;;14.33;38.12;102333.81;5015062;28;20218;-79
2022/03/25 10:11:20;;;;;;;28.00;14.63;;;;;;;14.43;38.47;102329.75;5014933;28;20207;-79
2022/03/25 10:13:47;;;;;;;30.00;16.13;;;;;;;14.53;37.74;102330.13;5014539;28;20917;-79
2022/03/25 10:16:30;;;;;;;27.30;14.63;;;;;;;14.64;37.57;102329.56;5014404;28;20230;-79
2022/03/25 10:18:58;;;;;;;24.37;15.90;;;;;;;14.71;37.71;102326.47;5013870;28;20187;-79
2022/03/25 10:21:24;;;;;;;24.77;15.10;;;;;;;14.78;38.05;102327.00;5014573;28;20210;-79
2022/03/25 10:23:52;;;;;;;22.60;15.33;;;;;;;14.86;38.33;102316.75;5006895;28;20200;-79
2022/03/25 10:26:18;;;;;;;26.80;14.93;;;;;;;14.96;38.36;102323.31;5006216;28;20232;-80
2022/03/25 10:28:47;;;;;;;24.07;15.40;;;;;;;15.09;38.60;102319.00;5014067;28;20213;-80
2022/03/25 10:31:17;;;;;;;27.00;15.07;;;;;;;15.21;38.66;102312.97;5014116;28;20692;-79
2022/03/25 10:33:46;;;;;;;24.90;14.97;;;;;;;15.31;38.33;102307.91;5014302;28;20226;-79
2022/03/25 10:36:14;;;;;;;23.63;16.13;;;;;;;15.42;38.53;102316.22;5014055;28;20231;-80
2022/03/25 10:38:44;;;;;;;26.20;15.73;;;;;;;15.52;38.13;102311.19;4998803;28;20621;-79
2022/03/25 10:41:11;;;;;;;27.50;16.20;;;;;;;15.60;37.83;102319.69;4994613;28;20760;-79
2022/03/25 10:43:52;;;;;;;25.33;16.20;;;;;;;15.66;38.12;102313.09;5009574;28;20865;-79
2022/03/25 10:46:33;;;;;;;33.87;17.13;;;;;;;15.72;37.97;102307.38;5014282;28;20241;-79
2022/03/25 10:49:03;;;;;;;25.67;16.20;;;;;;;15.80;38.02;102308.66;4997856;28;20666;-80
2022/03/25 10:51:30;;;;;;;31.37;16.47;;;;;;;15.91;37.71;102308.03;4994565;28;20199;-79
2022/03/25 10:53:58;;;;;;;24.33;15.97;;;;;;;15.99;37.75;102308.44;4994809;28;20245;-79
2022/03/25 10:56:25;;;;;;;27.17;17.23;;;;;;;16.04;37.30;102302.78;4996617;28;20233;-79
2022/03/25 10:58:53;;;;;;;31.07;18.33;;;;;;;16.09;37.59;102316.81;4999391;28;20602;-79
2022/03/25 11:01:20;;;;;;;32.03;20.67;;;;;;;16.16;37.81;102312.78;4999552;28;20675;-79
2022/03/25 11:03:49;;;;;;;33.47;20.17;;;;;;;16.19;37.57;102304.53;4999296;28;20217;-80
2022/03/25 11:06:18;;;;;;;31.17;20.40;;;;;;;16.25;37.78;102310.44;4998855;28;20262;-80
2022/03/25 11:08:45;;;;;;;33.00;20.27;;;;;;;16.30;37.56;102307.47;4998237;28;20253;-79
2022/03/25 11:11:12;;;;;;;34.20;20.40;;;;;;;16.33;37.70;102307.25;4999123;28;20213;-79
2022/03/25 11:13:39;;;;;;;35.50;20.57;;;;;;;16.35;37.43;102308.03;4998631;28;20245;-79
2022/03/25 11:16:08;;;;;;;32.70;21.50;;;;;;;16.33;37.25;102304.56;4999081;28;20234;-79
2022/03/25 11:18:35;;;;;;;36.23;21.63;;;;;;;16.32;37.36;102300.13;4998242;28;20993;-79
2022/03/25 11:21:05;;;;;;;37.57;22.77;;;;;;;16.38;37.49;102297.09;4998258;28;20209;-80
2022/03/25 11:23:40;;;;;;;35.77;22.70;;;;;;;16.41;37.39;102296.91;4998769;28;20281;-80